Aqaba, Aqaba King Hussein International Airport (OJAQ)

NameAqaba King Hussein International Airport
CityAqaba
CountryJordan
ICAOOJAQ
IATAAQJ
Altitude53 m
CoordinatesGoogle Map
Live Air TrafficLiveATC.net
METAROJAQ 251700Z AUTO 34015KT 7000 FEW030 24/07 Q1009 NOSIG
2020-04-25 17:00:00 Wind: North-Northwest (340°) 7.72 m/s - Visibility: 7000 m - Temperature: 24 °C - Dew point: 7 °C - Humidity: 33.7% - Pressure: 1009 hPa

Sorry, no flights used the airport in this database.